Time;durP1;ratioP1;P1;durP2;ratioP2;P2;SDS_P1;SDS_P2;PMS_P1;PMS_P2;Temp;Humidity;BMP_temperature;BMP_pressure;BME280_temperature;BME280_humidity;BME280_pressure;Samples;Min_cycle;Max_cycle;Signal;HPM_P1;HPM_P2
2022/06/23 00:03:48;;;;;;;0.20;0.00;;;22.10;99.90;;;;;;21236033;28;20207;-71
2022/06/23 00:14:03;;;;;;;0.20;0.00;;;22.10;99.90;;;;;;21236399;28;20216;-71
2022/06/23 00:24:17;;;;;;;0.20;0.00;;;22.00;99.90;;;;;;21232527;28;20259;-71
2022/06/23 00:34:24;;;;;;;0.20;0.00;;;22.00;99.90;;;;;;21232983;28;20222;-72
2022/06/23 00:44:34;;;;;;;0.20;0.00;;;22.00;99.90;;;;;;21233490;28;20218;-71
2022/06/23 00:54:44;;;;;;;0.20;0.00;;;21.90;99.90;;;;;;21232395;28;20251;-70
2022/06/23 01:04:58;;;;;;;0.20;0.00;;;21.70;99.90;;;;;;21231153;28;20215;-70
2022/06/23 01:15:08;;;;;;;0.20;0.00;;;21.60;99.90;;;;;;21226914;28;20303;-71
2022/06/23 01:25:41;;;;;;;0.20;0.00;;;21.60;99.90;;;;;;21228879;28;20190;-69
2022/06/23 01:35:54;;;;;;;0.20;0.00;;;21.60;99.90;;;;;;21224454;28;20258;-70
2022/06/23 01:46:04;;;;;;;0.20;0.00;;;21.50;99.90;;;;;;21227885;28;20195;-71
2022/06/23 01:56:35;;;;;;;0.20;0.00;;;21.50;99.90;;;;;;21225780;28;20227;-71
2022/06/23 02:06:48;;;;;;;0.20;0.00;;;21.70;99.90;;;;;;21223889;28;20293;-70
2022/06/23 02:16:58;;;;;;;0.20;0.00;;;21.80;99.90;;;;;;21223637;28;20243;-70
2022/06/23 02:27:08;;;;;;;0.20;0.00;;;21.70;99.90;;;;;;21223327;28;20217;-70
2022/06/23 02:37:51;;;;;;;0.20;0.00;;;21.90;99.90;;;;;;21225328;28;20243;-72
2022/06/23 02:48:09;;;;;;;0.20;0.00;;;21.90;99.90;;;;;;21221499;28;20214;-71
2022/06/23 02:58:19;;;;;;;0.20;0.00;;;21.90;99.90;;;;;;21223697;28;20249;-71
2022/06/23 03:08:33;;;;;;;0.20;0.00;;;21.90;99.90;;;;;;21222935;28;20254;-71
2022/06/23 03:18:47;;;;;;;0.20;0.00;;;22.00;99.90;;;;;;21222816;28;20290;-71
2022/06/23 03:28:57;;;;;;;0.20;0.00;;;22.10;99.90;;;;;;21221194;28;20203;-70
2022/06/23 03:49:42;;;;;;;0.20;0.00;;;22.10;99.90;;;;;;21236639;28;20187;-71
2022/06/23 04:00:01;;;;;;;0.20;0.08;;;22.20;99.90;;;;;;21236433;28;20235;-70
2022/06/23 04:10:08;;;;;;;0.20;0.00;;;22.10;99.90;;;;;;21235367;28;20214;-70
2022/06/23 04:20:39;;;;;;;0.20;0.00;;;22.00;99.90;;;;;;21234036;28;20231;-70
2022/06/23 04:30:43;;;;;;;0.20;0.00;;;21.90;99.90;;;;;;21213724;28;20273;-70
2022/06/23 04:40:51;;;;;;;0.20;0.00;;;21.90;99.90;;;;;;21232179;28;20206;-70
2022/06/23 04:51:00;;;;;;;0.20;0.10;;;21.90;99.90;;;;;;21231007;28;20211;-71
2022/06/23 05:01:14;;;;;;;0.20;0.00;;;22.20;99.90;;;;;;21227777;28;20195;-71
2022/06/23 05:11:26;;;;;;;0.20;0.03;;;22.40;99.90;;;;;;21228832;28;20218;-70
2022/06/23 05:21:40;;;;;;;0.20;0.00;;;22.80;99.90;;;;;;21229183;28;20261;-71
2022/06/23 05:31:46;;;;;;;0.20;0.00;;;22.90;99.90;;;;;;21227454;28;20207;-71
2022/06/23 05:41:58;;;;;;;0.20;0.00;;;23.50;99.90;;;;;;21226383;28;20183;-72
2022/06/23 05:52:06;;;;;;;0.20;0.00;;;24.10;99.90;;;;;;21224653;28;20223;-70
2022/06/23 06:02:18;;;;;;;0.20;0.00;;;24.30;99.90;;;;;;21226074;28;20218;-74
2022/06/23 06:12:25;;;;;;;0.20;0.00;;;24.20;99.90;;;;;;21223265;28;20342;-70
2022/06/23 06:23:02;;;;;;;0.20;0.00;;;24.20;99.90;;;;;;21223982;28;20227;-73
2022/06/23 06:33:06;;;;;;;0.20;0.00;;;24.40;99.90;;;;;;21187597;28;20243;-71
2022/06/23 06:43:15;;;;;;;0.20;0.00;;;24.70;99.90;;;;;;21217762;28;20191;-72
2022/06/23 06:53:24;;;;;;;0.20;0.00;;;24.80;99.90;;;;;;21219188;28;20253;-72
2022/06/23 07:03:31;;;;;;;0.20;0.00;;;24.80;99.90;;;;;;21219102;28;20207;-73
2022/06/23 07:13:40;;;;;;;0.20;0.05;;;24.70;99.90;;;;;;21231689;28;20234;-71
2022/06/23 07:23:53;;;;;;;0.20;0.00;;;24.90;99.90;;;;;;21236056;28;20249;-72
2022/06/23 07:34:03;;;;;;;0.20;0.00;;;25.20;99.90;;;;;;21234969;28;20234;-71
2022/06/23 07:44:15;;;;;;;0.20;0.00;;;26.00;99.90;;;;;;21232180;28;20225;-72
2022/06/23 07:54:21;;;;;;;0.20;0.00;;;26.10;99.90;;;;;;21232248;28;20265;-72
2022/06/23 08:04:32;;;;;;;0.20;0.00;;;26.60;99.90;;;;;;21233409;28;20255;-72
2022/06/23 08:14:40;;;;;;;0.20;0.00;;;26.10;99.90;;;;;;21232344;28;20231;-72
2022/06/23 08:24:49;;;;;;;0.20;0.10;;;25.40;99.90;;;;;;21226574;28;20246;-70
2022/06/23 08:35:18;;;;;;;0.20;0.00;;;25.80;99.90;;;;;;21228779;28;20215;-72
2022/06/23 08:45:33;;;;;;;0.20;0.00;;;25.70;99.90;;;;;;21229891;27;20206;-71
2022/06/23 08:55:45;;;;;;;0.20;0.00;;;25.70;99.90;;;;;;21226502;28;20275;-72
2022/06/23 09:06:05;;;;;;;0.20;0.00;;;25.80;99.90;;;;;;21226219;28;20191;-71
2022/06/23 09:16:34;;;;;;;0.20;0.00;;;25.90;99.90;;;;;;21225050;28;20246;-72
2022/06/23 09:26:44;;;;;;;0.20;0.00;;;26.00;99.90;;;;;;21224003;28;20195;-70
2022/06/23 09:37:25;;;;;;;0.20;0.00;;;26.30;99.90;;;;;;21223237;28;20243;-70
2022/06/23 09:47:53;;;;;;;0.20;0.00;;;26.50;99.90;;;;;;21220127;28;20211;-71
2022/06/23 09:58:33;;;;;;;0.20;0.00;;;26.40;99.90;;;;;;21219833;28;20231;-71
2022/06/23 10:08:47;;;;;;;0.20;0.00;;;26.80;99.90;;;;;;21222643;28;20183;-72
2022/06/23 10:19:32;;;;;;;0.20;0.00;;;26.70;99.90;;;;;;21220942;28;20238;-72
2022/06/23 10:29:59;;;;;;;0.20;0.00;;;27.10;99.90;;;;;;21218188;28;20194;-72
2022/06/23 10:41:02;;;;;;;0.20;0.00;;;27.00;99.90;;;;;;21219297;28;20237;-70
2022/06/23 10:51:20;;;;;;;0.20;0.00;;;27.40;99.90;;;;;;21231209;28;20545;-71
2022/06/23 11:01:45;;;;;;;0.20;0.00;;;28.40;99.90;;;;;;21236263;28;20230;-71
2022/06/23 11:12:03;;;;;;;0.20;0.00;;;28.70;99.90;;;;;;21234049;28;20267;-66
2022/06/23 11:22:25;;;;;;;0.20;0.00;;;29.30;99.90;;;;;;21234842;28;20231;-71
2022/06/23 11:32:43;;;;;;;0.20;0.00;;;29.00;99.90;;;;;;21232208;28;20223;-71
2022/06/23 11:43:06;;;;;;;0.20;0.00;;;30.80;99.90;;;;;;21230070;28;20214;-72
2022/06/23 11:53:32;;;;;;;0.20;0.00;;;31.60;99.90;;;;;;21228236;28;20258;-71
2022/06/23 12:04:08;;;;;;;0.20;0.00;;;31.50;99.90;;;;;;21214217;28;20207;-71
2022/06/23 12:14:16;;;;;;;0.20;0.00;;;31.80;99.90;;;;;;21231487;28;20226;-70
2022/06/23 12:24:27;;;;;;;0.20;0.00;;;32.00;99.90;;;;;;21228106;28;20311;-72
2022/06/23 12:34:40;;;;;;;0.20;0.00;;;31.80;99.90;;;;;;21225850;28;20235;-74
2022/06/23 12:44:56;;;;;;;0.20;0.00;;;32.90;99.90;;;;;;21225435;28;20207;-72
2022/06/23 12:55:20;;;;;;;0.20;0.03;;;32.20;99.90;;;;;;21227932;28;20301;-72
2022/06/23 13:05:30;;;;;;;0.20;0.00;;;32.80;99.90;;;;;;21226677;28;20199;-74
2022/06/23 13:15:44;;;;;;;0.20;0.00;;;33.80;99.90;;;;;;21226779;28;20298;-71
2022/06/23 13:25:53;;;;;;;0.20;0.00;;;33.60;99.90;;;;;;21225737;28;20191;-72
2022/06/23 13:36:04;;;;;;;0.20;0.00;;;33.60;99.90;;;;;;21221468;28;20222;-71
2022/06/23 13:46:14;;;;;;;0.20;0.00;;;33.90;99.90;;;;;;21223643;28;20255;-78
2022/06/23 13:56:24;;;;;;;0.20;0.00;;;33.90;99.90;;;;;;21202964;28;20248;-71
2022/06/23 14:06:36;;;;;;;0.20;0.00;;;33.10;99.90;;;;;;21222253;28;20221;-72
2022/06/23 14:16:48;;;;;;;0.20;0.00;;;34.20;99.90;;;;;;21219200;28;20253;-67
2022/06/23 14:26:59;;;;;;;0.20;0.00;;;34.00;99.90;;;;;;21218186;28;20191;-71
2022/06/23 14:37:09;;;;;;;0.20;0.00;;;33.70;99.90;;;;;;21218532;28;20464;-71
2022/06/23 14:47:19;;;;;;;0.20;0.00;;;33.10;99.90;;;;;;21217909;28;20242;-70
2022/06/23 14:57:35;;;;;;;5.15;0.55;;;34.00;99.90;;;;;;21216210;28;20222;-73
2022/06/23 15:07:47;;;;;;;0.20;0.00;;;33.20;99.90;;;;;;21215034;28;20191;-72
2022/06/23 15:18:01;;;;;;;0.20;0.00;;;35.40;99.90;;;;;;21217078;28;20254;-70
2022/06/23 15:28:12;;;;;;;0.20;0.00;;;34.00;99.90;;;;;;21218125;28;20195;-71
2022/06/23 15:38:42;;;;;;;0.20;0.00;;;35.10;99.90;;;;;;21227267;28;20223;-71
2022/06/23 15:48:52;;;;;;;0.20;0.00;;;34.00;99.90;;;;;;21228761;28;20196;-73
2022/06/23 15:59:02;;;;;;;0.20;0.00;;;33.10;99.90;;;;;;21229863;28;20257;-71
2022/06/23 16:09:09;;;;;;;0.20;0.00;;;33.10;99.90;;;;;;21226050;28;20217;-72
2022/06/23 16:19:23;;;;;;;0.20;0.00;;;32.10;99.90;;;;;;21225573;28;20298;-71
2022/06/23 16:29:29;;;;;;;0.20;0.00;;;31.90;99.90;;;;;;21224532;28;20206;-69
2022/06/23 16:39:38;;;;;;;0.20;0.00;;;31.40;99.90;;;;;;21223683;28;20250;-73
2022/06/23 16:49:52;;;;;;;0.20;0.00;;;30.90;99.90;;;;;;21224949;28;20207;-72
2022/06/23 17:00:02;;;;;;;0.20;0.00;;;30.90;99.90;;;;;;21224842;28;20291;-72
2022/06/23 17:10:15;;;;;;;0.20;0.00;;;31.40;99.90;;;;;;21223388;28;20210;-70
2022/06/23 17:20:24;;;;;;;0.20;0.00;;;31.40;99.90;;;;;;21220281;28;20283;-71
2022/06/23 17:30:35;;;;;;;0.20;0.00;;;31.50;99.90;;;;;;21220128;28;20183;-72
2022/06/23 17:51:16;;;;;;;0.20;0.00;;;30.50;99.90;;;;;;21219109;28;20210;-73
2022/06/23 18:01:21;;;;;;;0.20;0.00;;;30.70;99.90;;;;;;21221506;28;20238;-71
2022/06/23 18:11:30;;;;;;;0.20;0.00;;;31.20;99.90;;;;;;21218435;28;20221;-72
2022/06/23 18:21:47;;;;;;;0.20;0.00;;;30.20;99.90;;;;;;21216581;28;20247;-72
2022/06/23 18:31:57;;;;;;;0.20;0.00;;;30.50;99.90;;;;;;21215318;28;20183;-71
2022/06/23 18:42:06;;;;;;;0.20;0.00;;;29.60;99.90;;;;;;21217728;28;20207;-71
2022/06/23 18:52:14;;;;;;;0.20;0.10;;;28.90;99.90;;;;;;21214505;28;20211;-71
2022/06/23 19:02:29;;;;;;;0.20;0.00;;;28.30;99.90;;;;;;21216093;28;20222;-72
2022/06/23 19:12:39;;;;;;;0.20;0.00;;;27.10;99.90;;;;;;21229997;28;20195;-72
2022/06/23 19:22:50;;;;;;;0.20;0.00;;;26.60;99.90;;;;;;21234380;28;20241;-72
2022/06/23 19:32:57;;;;;;;0.20;0.00;;;26.40;99.90;;;;;;21231570;28;20229;-72
2022/06/23 19:43:11;;;;;;;0.20;0.00;;;26.10;99.90;;;;;;21233812;28;20279;-72
2022/06/23 19:53:38;;;;;;;0.20;0.00;;;26.00;99.90;;;;;;21232749;28;20245;-72
2022/06/23 20:03:50;;;;;;;0.20;0.00;;;25.90;99.90;;;;;;21233020;28;20217;-72
2022/06/23 20:13:57;;;;;;;0.20;0.00;;;26.00;99.90;;;;;;21231357;28;20230;-73
2022/06/23 20:24:14;;;;;;;0.20;0.10;;;25.80;99.90;;;;;;21230814;28;20231;-71
2022/06/23 20:34:42;;;;;;;0.20;0.00;;;25.80;99.90;;;;;;21229708;28;20242;-71
2022/06/23 20:44:59;;;;;;;0.20;0.00;;;25.70;99.90;;;;;;21229802;28;20195;-71
2022/06/23 20:55:14;;;;;;;0.20;0.00;;;25.40;99.90;;;;;;21228341;28;20223;-71
2022/06/23 21:05:30;;;;;;;0.20;0.00;;;25.30;99.90;;;;;;21230978;28;20229;-72
2022/06/23 21:15:47;;;;;;;0.20;0.10;;;25.10;99.90;;;;;;21225635;28;20251;-72
2022/06/23 21:25:56;;;;;;;0.20;0.00;;;24.70;99.90;;;;;;21227438;28;20196;-71
2022/06/23 21:36:03;;;;;;;0.20;0.00;;;24.50;99.90;;;;;;21226100;28;20244;-72
2022/06/23 21:46:17;;;;;;;0.20;0.00;;;23.50;99.90;;;;;;21226274;28;20231;-71
2022/06/23 21:56:38;;;;;;;0.20;0.00;;;23.50;99.90;;;;;;21223054;28;20222;-71
2022/06/23 22:06:57;;;;;;;0.20;0.00;;;23.50;99.90;;;;;;21223452;28;20203;-70
2022/06/23 22:17:04;;;;;;;0.20;0.00;;;23.50;99.90;;;;;;21221917;28;20246;-69
2022/06/23 22:27:13;;;;;;;0.20;0.00;;;23.40;99.90;;;;;;21222575;28;20191;-71
2022/06/23 22:37:27;;;;;;;0.20;0.00;;;23.10;99.90;;;;;;21222010;28;20227;-71
2022/06/23 22:47:36;;;;;;;0.20;0.10;;;23.10;99.90;;;;;;21222778;28;20191;-71
2022/06/23 22:57:55;;;;;;;0.20;0.00;;;23.20;99.90;;;;;;21222596;28;20230;-71
2022/06/23 23:08:13;;;;;;;0.20;0.00;;;22.80;99.90;;;;;;21222052;28;20179;-71
2022/06/23 23:18:26;;;;;;;0.20;0.00;;;22.80;99.90;;;;;;21219769;28;20219;-70
2022/06/23 23:28:32;;;;;;;0.20;0.00;;;22.70;99.90;;;;;;21220036;28;20191;-70
2022/06/23 23:39:01;;;;;;;0.20;0.00;;;22.80;99.90;;;;;;21219020;28;20246;-71
2022/06/23 23:49:12;;;;;;;0.20;0.00;;;22.50;99.90;;;;;;21204742;28;20241;-71
2022/06/23 23:59:21;;;;;;;0.20;0.00;;;22.20;99.90;;;;;;21234776;28;20218;-71
